Ana Sayfa
METAR-TAF:

METAR-TAF

Havaalanları :

Piedras Negras, Meksika

Enlem: 28-42N, Boylam: 100-31W, yükseklik: 250 m

Güncel hava durumu gözlemi

Rapor saat 01:42 UTC de 5 saat ve 23 dakika önce yapıldı.
Rüzgar doğu/güneydoğudan 5 kt
Sıcaklık 21°C
Nem 53%
Basınç 1012 hPa
Görüş mesafesi: 16.1 km
20000 ft yükseklikte parçalı bulutlu

METAR: MMPG 140142Z 12005KT 10SM SCT200 21/11 A2989 RMK 8/001

Saat: 01:05 (07:05 UTC)

Tahmin

Rapor saat 05:25 UTC de 1 saat ve 40 dakika önce yapıldı.
Ayın 14'si saat 06 UTC'den ayın 15'si saat 06 UTC'ye kadar geçerli Tahmin
Rüzgar doğu/güneydoğudan 5 kt
Görüş mesafesi: 10 km
20000 ft yükseklikte parçalı bulutlu
Ayın 14'si saat 1800 UTC'den
Rüzgar güneybatıdan 8 kt
Görüş mesafesi: 10 km
22000 ft yükseklikte parçalı bulutlu
Dönüşüyor
ayın 15'si saat 03 UTC'den ayın 15'si saat 05 UTC'ye kadar
Rüzgar güney/güneybatıdan 4 kt

TAF: MMPG 140525Z 1406/1506 12005KT P6SM SCT200 FM141800 22008KT P6SM SCT220 BECMG 1503/1505 20004KT

4.000'den fazla havaalanı için hava durumu gözlemleri ve tahminleri (METAR ve TAF raporları).

Kullanılabilir istasyonlar harita üzerinde sarı ve kırmızı noktalarla gösterilir.

İstasyonun adını görmek için fareyi noktanın üzerinde gezdirin.

Sonrasında hava gözlem ve tahminlerini görmek için tıklayın.

Haritayı değiştirmek için: yaklaştırmak için siyah artı işaretli yeşil düğmeye ve uzaklaştırmak için de eksi işaretli düğmeye hızla tıklayın; bitişik haritalar için yeşil okları kullanın.


METAR-TAF: